createdAt,value
2023-03-28T00:00:00.522Z,99.90
2023-03-28T00:02:27.638Z,99.90
2023-03-28T00:04:54.819Z,99.90
2023-03-28T00:07:22.503Z,99.90
2023-03-28T00:09:50.361Z,99.90
2023-03-28T00:12:17.476Z,99.90
2023-03-28T00:14:46.339Z,99.90
2023-03-28T00:17:13.632Z,99.90
2023-03-28T00:19:41.140Z,99.90
2023-03-28T00:22:08.673Z,99.90
2023-03-28T00:24:39.027Z,99.90
2023-03-28T00:27:07.326Z,99.90
2023-03-28T00:29:34.788Z,99.90
2023-03-28T00:32:03.036Z,99.90
2023-03-28T00:34:30.501Z,99.90
2023-03-28T00:36:58.608Z,99.90
2023-03-28T00:39:27.832Z,99.90
2023-03-28T00:41:55.923Z,99.90
2023-03-28T00:44:58.859Z,99.90
2023-03-28T00:47:59.061Z,99.90
2023-03-28T00:50:30.967Z,99.90
2023-03-28T00:53:22.115Z,99.90
2023-03-28T00:56:23.507Z,99.90
2023-03-28T00:58:52.172Z,99.90
2023-03-28T01:01:20.611Z,99.90
2023-03-28T01:03:56.546Z,99.90
2023-03-28T01:06:26.023Z,99.90
2023-03-28T01:08:54.100Z,99.90
2023-03-28T01:11:23.802Z,99.90
2023-03-28T01:13:53.118Z,99.90
2023-03-28T01:16:30.957Z,99.90
2023-03-28T01:19:03.898Z,99.90
2023-03-28T01:22:13.959Z,99.90
2023-03-28T01:25:26.618Z,99.90
2023-03-28T01:28:44.400Z,99.90
2023-03-28T01:31:33.480Z,99.90
2023-03-28T01:35:30.059Z,99.90
2023-03-28T01:41:57.549Z,99.90
2023-03-28T01:44:47.359Z,99.90
2023-03-28T01:47:27.298Z,99.90
2023-03-28T01:50:14.970Z,99.90
2023-03-28T01:59:57.873Z,99.90
2023-03-28T02:03:17.819Z,99.90
2023-03-28T02:06:08.417Z,99.90
2023-03-28T02:08:40.102Z,99.90
2023-03-28T02:11:27.757Z,99.90
2023-03-28T02:14:39.431Z,99.90
2023-03-28T02:17:43.839Z,99.90
2023-03-28T02:20:38.287Z,99.90
2023-03-28T02:23:37.114Z,99.90
2023-03-28T02:26:31.198Z,99.90
2023-03-28T02:32:13.025Z,99.90
2023-03-28T02:34:42.011Z,99.90
2023-03-28T02:37:38.789Z,99.90
2023-03-28T02:40:49.861Z,99.90
2023-03-28T02:44:24.381Z,99.90
2023-03-28T02:47:33.587Z,99.90
2023-03-28T02:50:22.274Z,99.90
2023-03-28T02:53:33.069Z,99.90
2023-03-28T02:56:29.716Z,99.90
2023-03-28T02:59:14.887Z,99.90
2023-03-28T03:01:42.931Z,99.90
2023-03-28T03:04:10.112Z,99.90
2023-03-28T03:06:37.354Z,99.90
2023-03-28T03:09:05.035Z,99.90
2023-03-28T03:11:32.541Z,99.90
2023-03-28T03:14:00.552Z,99.90
2023-03-28T03:16:29.913Z,99.90
2023-03-28T03:18:58.573Z,99.90
2023-03-28T03:21:26.300Z,99.90
2023-03-28T03:23:53.402Z,99.90
2023-03-28T03:26:20.797Z,99.90
2023-03-28T03:29:00.912Z,99.90
2023-03-28T03:31:28.912Z,99.90
2023-03-28T03:34:34.035Z,99.90
2023-03-28T03:37:02.497Z,99.90
2023-03-28T03:39:29.978Z,99.90
2023-03-28T03:41:57.506Z,99.90
2023-03-28T03:44:24.797Z,99.90
2023-03-28T03:46:52.651Z,99.90
2023-03-28T03:49:19.812Z,99.90
2023-03-28T03:51:47.156Z,99.90
2023-03-28T03:54:16.971Z,99.90
2023-03-28T03:56:44.197Z,99.90
2023-03-28T03:59:12.310Z,99.90
2023-03-28T04:01:41.680Z,99.90
2023-03-28T04:04:28.298Z,99.90
2023-03-28T04:07:15.966Z,99.90
2023-03-28T04:09:46.666Z,99.90
2023-03-28T04:12:15.627Z,99.90
2023-03-28T04:14:48.562Z,99.90
2023-03-28T04:17:35.522Z,99.90
2023-03-28T04:20:13.872Z,99.90
2023-03-28T04:23:02.100Z,99.90
2023-03-28T04:25:31.571Z,99.90
2023-03-28T04:28:04.751Z,99.90
2023-03-28T04:30:38.331Z,99.90
2023-03-28T04:33:34.916Z,99.90
2023-03-28T04:36:06.031Z,99.90
2023-03-28T04:38:37.590Z,99.90
2023-03-28T04:41:19.098Z,99.90
2023-03-28T04:44:24.917Z,99.90
2023-03-28T04:47:00.910Z,99.90
2023-03-28T04:49:28.069Z,99.90
2023-03-28T04:51:55.380Z,99.90
2023-03-28T04:54:22.840Z,99.90
2023-03-28T04:57:09.976Z,99.90
2023-03-28T04:59:46.095Z,99.90
2023-03-28T05:02:22.189Z,99.90
2023-03-28T05:05:00.049Z,99.90
2023-03-28T05:07:27.277Z,99.90
2023-03-28T05:09:54.970Z,99.90
2023-03-28T05:12:22.177Z,99.90
2023-03-28T05:14:56.951Z,99.90
2023-03-28T05:17:25.161Z,99.90
2023-03-28T05:20:16.761Z,99.90
2023-03-28T05:22:50.971Z,99.90
2023-03-28T05:25:18.377Z,99.90
2023-03-28T05:27:46.417Z,99.90
2023-03-28T05:30:13.832Z,99.90
2023-03-28T05:32:41.757Z,99.90
2023-03-28T05:35:13.790Z,99.90
2023-03-28T05:37:43.014Z,99.90
2023-03-28T05:40:12.713Z,99.90
2023-03-28T05:42:41.903Z,99.90
2023-03-28T05:45:13.304Z,99.90
2023-03-28T05:47:56.984Z,99.90
2023-03-28T05:50:26.368Z,99.90
2023-03-28T05:52:59.931Z,99.90
2023-03-28T05:55:27.072Z,99.90
2023-03-28T05:57:54.112Z,99.90
2023-03-28T06:00:24.583Z,99.90
2023-03-28T06:02:54.999Z,99.90
2023-03-28T06:05:31.649Z,99.90
2023-03-28T06:07:58.854Z,99.90
2023-03-28T06:10:28.690Z,99.90
2023-03-28T06:13:15.849Z,99.90
2023-03-28T06:15:45.633Z,99.90
2023-03-28T06:18:12.814Z,99.90
2023-03-28T06:20:45.064Z,99.90
2023-03-28T06:23:12.675Z,99.90
2023-03-28T06:25:39.776Z,99.90
2023-03-28T06:28:07.445Z,99.90
2023-03-28T06:30:48.502Z,99.90
2023-03-28T06:33:15.993Z,99.90
2023-03-28T06:35:43.328Z,99.90
2023-03-28T06:38:10.679Z,99.90
2023-03-28T06:40:46.729Z,99.90
2023-03-28T06:43:13.911Z,99.90
2023-03-28T06:45:46.811Z,99.90
2023-03-28T06:48:15.216Z,99.90
2023-03-28T06:51:17.511Z,99.90
2023-03-28T06:53:46.043Z,99.90
2023-03-28T06:56:18.471Z,99.90
2023-03-28T06:58:45.832Z,99.90
2023-03-28T07:01:16.472Z,99.90
2023-03-28T07:04:06.612Z,99.90
2023-03-28T07:06:35.582Z,99.90
2023-03-28T07:09:04.830Z,99.90
2023-03-28T07:11:49.142Z,99.90
2023-03-28T07:14:17.421Z,99.90
2023-03-28T07:16:44.802Z,99.90
2023-03-28T07:19:11.958Z,99.90
2023-03-28T07:21:42.436Z,99.90
2023-03-28T07:24:09.778Z,99.90
2023-03-28T07:27:11.892Z,99.90
2023-03-28T07:29:42.731Z,99.90
2023-03-28T07:32:10.068Z,99.90
2023-03-28T07:34:37.262Z,99.90
2023-03-28T07:37:05.457Z,99.90
2023-03-28T07:39:51.306Z,99.90
2023-03-28T07:42:22.551Z,99.90
2023-03-28T07:44:49.695Z,99.90
2023-03-28T07:47:18.336Z,99.90
2023-03-28T07:49:46.035Z,99.90
2023-03-28T07:52:14.102Z,99.90
2023-03-28T07:54:41.879Z,99.90
2023-03-28T07:57:09.185Z,99.90
2023-03-28T07:59:56.285Z,99.90
2023-03-28T08:02:24.083Z,99.90
2023-03-28T08:04:53.714Z,99.90
2023-03-28T08:07:25.778Z,99.90
2023-03-28T08:09:55.238Z,99.90
2023-03-28T08:12:29.539Z,99.90
2023-03-28T08:14:56.736Z,99.90
2023-03-28T08:17:24.477Z,99.90
2023-03-28T08:19:53.306Z,99.90
2023-03-28T08:22:49.510Z,99.90
2023-03-28T08:25:39.501Z,99.90
2023-03-28T08:28:08.003Z,99.90
2023-03-28T08:30:35.739Z,99.90
2023-03-28T08:33:06.533Z,99.90
2023-03-28T08:35:34.038Z,99.90
2023-03-28T08:38:10.470Z,99.90
2023-03-28T08:40:44.345Z,99.90
2023-03-28T08:44:05.520Z,99.90
2023-03-28T08:46:35.433Z,99.90
2023-03-28T08:49:12.060Z,99.90
2023-03-28T08:51:47.774Z,99.90
2023-03-28T08:54:20.921Z,99.90
2023-03-28T08:56:55.618Z,99.90
2023-03-28T08:59:50.451Z,99.90
2023-03-28T09:02:23.164Z,99.90
2023-03-28T09:04:51.621Z,99.90
2023-03-28T09:08:00.475Z,99.90
2023-03-28T09:10:42.983Z,99.90
2023-03-28T09:14:03.014Z,99.90
2023-03-28T09:17:01.586Z,99.90
2023-03-28T09:20:11.384Z,99.90
2023-03-28T09:23:52.951Z,99.90
2023-03-28T09:26:45.414Z,99.90
2023-03-28T09:29:24.854Z,99.90
2023-03-28T09:32:12.604Z,99.90
2023-03-28T09:34:51.549Z,98.50
2023-03-28T09:37:38.170Z,97.80
2023-03-28T09:40:19.386Z,93.90
2023-03-28T09:43:33.461Z,93.70
2023-03-28T09:46:48.688Z,96.30
2023-03-28T09:49:33.687Z,97.60
2023-03-28T09:52:21.659Z,91.80
2023-03-28T09:54:49.184Z,91.00
2023-03-28T09:57:16.460Z,91.20
2023-03-28T09:59:58.801Z,85.40
2023-03-28T10:02:33.016Z,79.10
2023-03-28T10:05:30.253Z,76.60
2023-03-28T10:08:06.029Z,73.10
2023-03-28T10:10:59.915Z,72.00
2023-03-28T10:13:28.255Z,76.60
2023-03-28T10:15:58.867Z,70.70
2023-03-28T10:18:52.325Z,71.70
2023-03-28T10:21:48.766Z,67.70
2023-03-28T10:24:22.755Z,79.70
2023-03-28T10:26:59.192Z,74.40
2023-03-28T10:29:27.195Z,75.00
2023-03-28T10:31:55.202Z,66.50
2023-03-28T10:34:33.686Z,64.70
2023-03-28T10:37:30.090Z,59.40
2023-03-28T10:40:26.721Z,58.90
2023-03-28T10:43:34.264Z,59.50
2023-03-28T10:46:20.267Z,57.20
2023-03-28T10:49:15.622Z,58.90
2023-03-28T10:51:46.016Z,57.30
2023-03-28T10:54:52.172Z,54.60
2023-03-28T10:58:01.417Z,55.50
2023-03-28T11:00:47.145Z,48.10
2023-03-28T11:03:55.796Z,48.30
2023-03-28T11:07:05.464Z,49.60
2023-03-28T11:10:16.101Z,49.80
2023-03-28T11:13:49.542Z,48.50
2023-03-28T11:17:00.635Z,47.10
2023-03-28T12:06:27.321Z,41.10
2023-03-28T12:09:26.466Z,39.10
2023-03-28T12:12:10.636Z,37.20
2023-03-28T12:15:12.347Z,37.50
2023-03-28T12:18:07.862Z,36.30
2023-03-28T12:21:00.858Z,35.40
2023-03-28T12:24:37.514Z,36.30
2023-03-28T12:31:30.999Z,31.30
2023-03-28T12:34:38.382Z,30.80
2023-03-28T13:42:26.946Z,33.50
2023-03-28T13:44:58.603Z,34.60
2023-03-28T13:47:33.818Z,32.80
2023-03-28T13:50:22.829Z,30.50
2023-03-28T13:52:49.993Z,30.00
2023-03-28T13:55:25.434Z,33.80
2023-03-28T13:57:53.448Z,31.20
2023-03-28T14:00:23.783Z,31.10
2023-03-28T14:02:53.625Z,29.10
2023-03-28T14:05:27.195Z,32.40
2023-03-28T14:08:01.542Z,32.40
2023-03-28T14:10:34.893Z,31.20
2023-03-28T14:13:11.250Z,33.10
2023-03-28T14:15:40.711Z,35.80
2023-03-28T14:18:25.243Z,31.90
2023-03-28T14:20:56.062Z,37.70
2023-03-28T14:23:41.078Z,35.90
2023-03-28T14:26:20.218Z,34.10
2023-03-28T14:28:47.474Z,32.30
2023-03-28T14:31:28.386Z,31.00
2023-03-28T14:33:58.671Z,31.90
2023-03-28T14:36:31.201Z,30.80
2023-03-28T14:39:14.069Z,29.90
2023-03-28T14:41:43.496Z,30.20
2023-03-28T14:44:13.444Z,27.80
2023-03-28T14:46:41.288Z,29.60
2023-03-28T14:49:12.001Z,29.70
2023-03-28T14:51:43.261Z,27.20
2023-03-28T14:54:14.559Z,25.80
2023-03-28T14:56:42.240Z,24.80
2023-03-28T14:59:16.077Z,24.50
2023-03-28T15:01:45.356Z,25.20
2023-03-28T15:04:13.488Z,25.10
2023-03-28T15:06:40.716Z,25.30
2023-03-28T15:09:37.080Z,24.90
2023-03-28T15:12:08.049Z,24.90
2023-03-28T15:14:43.002Z,26.80
2023-03-28T15:17:19.009Z,28.10
2023-03-28T15:19:48.324Z,27.80
2023-03-28T15:22:24.510Z,28.00
2023-03-28T15:24:51.945Z,26.70
2023-03-28T15:27:35.212Z,27.60
2023-03-28T15:30:12.640Z,27.50
2023-03-28T15:32:40.043Z,30.90
2023-03-28T15:35:31.504Z,28.60
2023-03-28T15:38:07.340Z,29.10
2023-03-28T15:40:51.578Z,28.90
2023-03-28T15:44:11.564Z,28.50
2023-03-28T15:46:39.386Z,29.80
2023-03-28T15:49:07.534Z,30.10
2023-03-28T15:51:49.614Z,30.50
2023-03-28T15:54:30.340Z,32.40
2023-03-28T15:57:02.168Z,29.90
2023-03-28T15:59:42.358Z,31.60
2023-03-28T16:02:40.907Z,32.40
2023-03-28T16:05:31.925Z,29.70
2023-03-28T16:07:59.230Z,29.60
2023-03-28T16:10:26.384Z,30.20
2023-03-28T16:13:31.891Z,31.10
2023-03-28T16:16:26.307Z,30.00
2023-03-28T16:19:02.695Z,32.50
2023-03-28T16:21:31.085Z,29.90
2023-03-28T16:23:58.155Z,29.30
2023-03-28T16:26:25.413Z,28.00
2023-03-28T16:28:52.456Z,28.20
2023-03-28T16:31:19.608Z,27.70
2023-03-28T16:33:46.708Z,27.40
2023-03-28T16:36:14.084Z,28.40
2023-03-28T16:38:41.158Z,28.30
2023-03-28T16:41:08.860Z,28.20
2023-03-28T16:43:37.903Z,29.40
2023-03-28T16:46:05.596Z,29.50
2023-03-28T16:48:33.786Z,30.80
2023-03-28T16:51:07.271Z,30.50
2023-03-28T16:53:36.725Z,30.20
2023-03-28T16:56:05.251Z,30.80
2023-03-28T16:58:32.717Z,30.90
2023-03-28T17:01:19.780Z,31.10
2023-03-28T17:03:47.629Z,30.90
2023-03-28T17:06:16.704Z,31.90
2023-03-28T17:08:44.564Z,31.70
2023-03-28T17:11:12.758Z,32.20
2023-03-28T17:13:41.331Z,33.30
2023-03-28T17:16:09.871Z,33.30
2023-03-28T17:18:37.481Z,34.30
2023-03-28T17:21:07.166Z,34.60
2023-03-28T17:23:35.800Z,34.50
2023-03-28T17:26:03.211Z,34.30
2023-03-28T17:28:30.965Z,34.50
2023-03-28T17:30:58.138Z,34.70
2023-03-28T17:33:29.439Z,36.80
2023-03-28T17:35:56.604Z,35.80
2023-03-28T17:38:23.771Z,35.90
2023-03-28T17:40:50.946Z,36.50
2023-03-28T17:43:18.295Z,35.70
2023-03-28T17:45:45.414Z,36.10
2023-03-28T17:48:12.698Z,35.90
2023-03-28T17:50:39.848Z,37.30
2023-03-28T17:53:07.012Z,38.80
2023-03-28T17:55:34.569Z,40.30
2023-03-28T17:58:02.240Z,38.80
2023-03-28T18:00:31.520Z,38.70
2023-03-28T18:02:58.983Z,38.40
2023-03-28T18:05:54.026Z,37.10
2023-03-28T18:08:21.873Z,37.20
2023-03-28T18:10:48.946Z,38.00
2023-03-28T18:13:16.105Z,37.50
2023-03-28T18:15:44.351Z,37.80
2023-03-28T18:18:14.319Z,41.80
2023-03-28T18:20:44.515Z,43.80
2023-03-28T18:23:12.052Z,44.80
2023-03-28T18:25:39.592Z,45.60
2023-03-28T18:28:07.752Z,44.40
2023-03-28T18:30:35.225Z,44.30
2023-03-28T18:33:02.707Z,45.10
2023-03-28T18:35:30.139Z,44.80
2023-03-28T18:37:57.690Z,43.50
2023-03-28T18:40:24.891Z,47.70
2023-03-28T18:42:52.107Z,46.50
2023-03-28T18:45:19.462Z,49.00
2023-03-28T18:47:46.722Z,47.60
2023-03-28T18:50:15.248Z,48.60
2023-03-28T18:52:42.994Z,48.20
2023-03-28T18:55:12.146Z,49.90
2023-03-28T18:57:40.408Z,49.50
2023-03-28T19:00:20.630Z,50.80
2023-03-28T19:02:49.478Z,50.50
2023-03-28T19:05:17.559Z,51.00
2023-03-28T19:07:45.897Z,50.30
2023-03-28T19:10:13.506Z,51.20
2023-03-28T19:12:41.755Z,52.70
2023-03-28T19:15:11.060Z,52.80
2023-03-28T19:17:40.015Z,52.40
2023-03-28T19:20:12.206Z,51.80
2023-03-28T19:22:42.757Z,52.10
2023-03-28T19:25:10.362Z,51.40
2023-03-28T19:27:38.078Z,51.90
2023-03-28T19:30:07.324Z,52.00
2023-03-28T19:32:34.762Z,51.90
2023-03-28T19:35:01.874Z,52.30
2023-03-28T19:37:29.345Z,52.80
2023-03-28T19:39:59.197Z,51.40
2023-03-28T19:42:26.412Z,50.60
2023-03-28T19:44:56.751Z,52.20
2023-03-28T19:47:24.378Z,52.40
2023-03-28T19:49:51.530Z,49.50
2023-03-28T19:52:18.735Z,51.00
2023-03-28T19:54:45.997Z,51.10
2023-03-28T19:57:13.778Z,51.50
2023-03-28T19:59:41.110Z,52.30
2023-03-28T20:02:11.611Z,54.10
2023-03-28T20:04:38.713Z,53.30
2023-03-28T20:07:06.078Z,54.30
2023-03-28T20:09:34.989Z,56.00
2023-03-28T20:12:02.675Z,54.40
2023-03-28T20:14:29.740Z,54.70
2023-03-28T20:16:56.883Z,54.50
2023-03-28T20:19:24.051Z,54.50
2023-03-28T20:21:51.257Z,55.30
2023-03-28T20:24:18.306Z,59.30
2023-03-28T20:26:45.753Z,59.60
2023-03-28T20:29:13.937Z,59.20
2023-03-28T20:31:41.302Z,57.70
2023-03-28T20:34:08.457Z,59.30
2023-03-28T20:36:35.862Z,57.40
2023-03-28T20:39:04.009Z,56.40
2023-03-28T20:41:31.089Z,57.20
2023-03-28T20:44:03.650Z,58.10
2023-03-28T20:46:38.839Z,58.30
2023-03-28T20:49:06.375Z,61.70
2023-03-28T20:51:37.539Z,61.70
2023-03-28T20:54:06.470Z,60.00
2023-03-28T20:56:33.596Z,59.70
2023-03-28T20:59:00.741Z,59.70
2023-03-28T21:01:30.124Z,60.00
2023-03-28T21:04:00.216Z,60.80
2023-03-28T21:06:36.116Z,63.00
2023-03-28T21:09:06.951Z,65.10
2023-03-28T21:11:37.002Z,64.60
2023-03-28T21:14:06.297Z,63.80
2023-03-28T21:16:34.008Z,58.80
2023-03-28T21:19:02.682Z,58.30
2023-03-28T21:21:30.487Z,58.50
2023-03-28T21:23:57.602Z,58.10
2023-03-28T21:26:25.363Z,58.00
2023-03-28T21:28:53.140Z,58.10
2023-03-28T21:31:25.893Z,56.00
2023-03-28T21:33:56.923Z,58.10
2023-03-28T21:36:25.354Z,59.30
2023-03-28T21:38:53.103Z,57.90
2023-03-28T21:41:20.726Z,56.80
2023-03-28T21:43:48.329Z,57.40
2023-03-28T21:46:18.665Z,55.50
2023-03-28T21:48:48.446Z,55.80
2023-03-28T21:51:17.250Z,55.60
2023-03-28T21:53:45.044Z,55.60
2023-03-28T21:56:14.478Z,55.90
2023-03-28T21:58:42.285Z,55.50
2023-03-28T22:01:13.031Z,56.10
2023-03-28T22:03:40.368Z,56.50
2023-03-28T22:06:08.198Z,56.50
2023-03-28T22:08:35.438Z,57.20
2023-03-28T22:11:04.399Z,56.60
2023-03-28T22:13:32.025Z,57.90
2023-03-28T22:16:00.109Z,58.60
2023-03-28T22:18:28.427Z,58.70
2023-03-28T22:20:55.595Z,58.80
2023-03-28T22:23:24.198Z,58.50
2023-03-28T22:25:53.055Z,59.30
2023-03-28T22:28:24.735Z,59.70
2023-03-28T22:30:56.910Z,61.60
2023-03-28T22:33:25.637Z,59.50
2023-03-28T22:35:53.176Z,61.70
2023-03-28T22:38:20.506Z,63.70
2023-03-28T22:40:47.786Z,61.90
2023-03-28T22:43:16.224Z,62.70
2023-03-28T22:45:43.875Z,62.20
2023-03-28T22:48:14.647Z,70.10
2023-03-28T22:50:44.347Z,72.50
2023-03-28T22:53:12.501Z,71.00
2023-03-28T22:55:39.654Z,69.90
2023-03-28T22:58:07.150Z,70.90
2023-03-28T23:00:34.987Z,70.50
2023-03-28T23:03:02.390Z,72.40
2023-03-28T23:05:29.841Z,69.70
2023-03-28T23:07:57.805Z,69.70
2023-03-28T23:10:24.921Z,70.10
2023-03-28T23:12:52.019Z,70.60
2023-03-28T23:15:19.185Z,70.60
2023-03-28T23:17:46.712Z,71.10
2023-03-28T23:20:15.053Z,73.40
2023-03-28T23:22:46.629Z,72.50
2023-03-28T23:25:15.687Z,73.90
2023-03-28T23:27:43.583Z,76.50
2023-03-28T23:30:13.755Z,77.50
2023-03-28T23:32:41.093Z,78.40
2023-03-28T23:35:10.496Z,79.30
2023-03-28T23:37:38.450Z,78.80
2023-03-28T23:40:11.565Z,77.70
2023-03-28T23:42:38.839Z,77.70
2023-03-28T23:45:06.962Z,76.60
2023-03-28T23:47:34.127Z,75.00
2023-03-28T23:50:01.442Z,77.70
2023-03-28T23:52:28.607Z,74.40
2023-03-28T23:54:56.061Z,74.40
2023-03-28T23:57:25.386Z,75.10
2023-03-28T23:59:52.525Z,75.40
